createdAt,value
2018-05-13T00:01:16.412Z,15.70
2018-05-13T00:03:44.863Z,15.60
2018-05-13T00:06:13.329Z,15.60
2018-05-13T00:08:41.779Z,15.60
2018-05-13T00:11:10.238Z,15.60
2018-05-13T00:13:39.451Z,15.50
2018-05-13T00:16:07.915Z,15.40
2018-05-13T00:18:36.807Z,15.50
2018-05-13T00:21:05.266Z,15.50
2018-05-13T00:23:33.712Z,15.50
2018-05-13T00:26:02.177Z,15.50
2018-05-13T00:28:30.614Z,15.50
2018-05-13T00:30:59.066Z,15.50
2018-05-13T00:33:27.511Z,15.40
2018-05-13T00:35:56.734Z,15.40
2018-05-13T00:38:25.182Z,15.30
2018-05-13T00:40:53.645Z,15.40
2018-05-13T00:43:22.090Z,15.30
2018-05-13T00:45:50.564Z,15.30
2018-05-13T00:48:19.022Z,15.30
2018-05-13T00:50:47.491Z,15.30
2018-05-13T00:53:15.938Z,15.30
2018-05-13T00:55:44.402Z,15.30
2018-05-13T00:58:12.843Z,15.20
2018-05-13T01:00:42.074Z,15.20
2018-05-13T01:03:10.518Z,15.30
2018-05-13T01:05:38.979Z,15.10
2018-05-13T01:08:07.416Z,15.00
2018-05-13T01:10:35.876Z,15.10
2018-05-13T01:13:04.323Z,15.00
2018-05-13T01:15:32.767Z,15.00
2018-05-13T01:18:01.227Z,14.90
2018-05-13T01:20:29.867Z,14.90
2018-05-13T01:22:58.336Z,14.90
2018-05-13T01:25:26.785Z,14.90
2018-05-13T01:27:55.251Z,14.90
2018-05-13T01:30:23.690Z,14.80
2018-05-13T01:32:52.158Z,14.80
2018-05-13T01:35:20.614Z,14.80
2018-05-13T01:37:49.074Z,14.80
2018-05-13T01:40:18.279Z,14.80
2018-05-13T01:42:46.931Z,14.80
2018-05-13T01:45:16.028Z,14.80
2018-05-13T01:47:44.505Z,14.80
2018-05-13T01:50:12.968Z,14.80
2018-05-13T01:52:41.452Z,14.70
2018-05-13T01:55:09.896Z,14.80
2018-05-13T01:57:39.180Z,14.80
2018-05-13T02:00:07.632Z,14.80
2018-05-13T02:02:36.094Z,14.80
2018-05-13T02:05:05.306Z,14.70
2018-05-13T02:07:33.783Z,14.70
2018-05-13T02:10:02.229Z,14.80
2018-05-13T02:12:30.726Z,14.80
2018-05-13T02:14:59.170Z,14.80
2018-05-13T02:17:27.642Z,14.70
2018-05-13T02:19:56.095Z,14.80
2018-05-13T02:22:24.553Z,14.80
2018-05-13T02:24:52.990Z,14.80
2018-05-13T02:27:21.454Z,14.80
2018-05-13T02:29:49.902Z,14.70
2018-05-13T02:32:18.371Z,14.80
2018-05-13T02:34:46.820Z,14.80
2018-05-13T02:37:15.275Z,14.80
2018-05-13T02:39:43.728Z,14.80
2018-05-13T02:42:11.869Z,14.80
2018-05-13T02:44:40.315Z,14.80
2018-05-13T02:47:08.779Z,14.70
2018-05-13T02:49:37.221Z,14.80
2018-05-13T02:52:05.048Z,14.80
2018-05-13T02:54:33.482Z,14.80
2018-05-13T02:57:01.953Z,14.80
2018-05-13T02:59:31.022Z,14.80
2018-05-13T03:02:00.256Z,14.80
2018-05-13T03:04:28.700Z,14.80
2018-05-13T03:06:57.931Z,14.80
2018-05-13T03:09:26.371Z,14.80
2018-05-13T03:11:55.359Z,14.80
2018-05-13T03:14:23.797Z,14.80
2018-05-13T03:16:52.040Z,14.90
2018-05-13T03:19:20.485Z,14.90
2018-05-13T03:21:48.943Z,15.00
2018-05-13T03:24:17.383Z,15.00
2018-05-13T03:26:46.584Z,15.10
2018-05-13T03:29:16.693Z,15.10
2018-05-13T03:31:45.143Z,15.10
2018-05-13T03:34:13.614Z,15.10
2018-05-13T03:36:42.060Z,15.20
2018-05-13T03:39:10.534Z,15.30
2018-05-13T03:41:38.990Z,15.30
2018-05-13T03:44:07.451Z,15.30
2018-05-13T03:46:35.894Z,15.40
2018-05-13T03:49:04.028Z,15.40
2018-05-13T03:51:32.494Z,15.50
2018-05-13T03:54:00.964Z,15.50
2018-05-13T03:56:29.403Z,15.50
2018-05-13T03:58:57.869Z,15.50
2018-05-13T04:01:26.318Z,15.50
2018-05-13T04:03:54.779Z,15.40
2018-05-13T04:06:23.219Z,15.40
2018-05-13T04:09:02.597Z,15.40
2018-05-13T04:11:42.567Z,15.40
2018-05-13T04:14:22.067Z,15.40
2018-05-13T04:16:50.503Z,15.50
2018-05-13T04:19:18.963Z,15.40
2018-05-13T04:21:47.629Z,15.40
2018-05-13T04:24:16.092Z,15.40
2018-05-13T04:26:44.531Z,15.40
2018-05-13T04:29:12.990Z,15.50
2018-05-13T04:31:41.495Z,15.40
2018-05-13T04:34:09.959Z,15.40
2018-05-13T04:36:38.459Z,15.40
2018-05-13T04:39:08.556Z,15.40
2018-05-13T04:41:36.995Z,15.40
2018-05-13T04:44:05.485Z,15.40
2018-05-13T04:46:33.931Z,15.40
2018-05-13T04:49:02.391Z,15.30
2018-05-13T04:51:30.834Z,15.20
2018-05-13T04:53:59.303Z,15.30
2018-05-13T04:56:27.752Z,15.30
2018-05-13T04:58:57.011Z,15.30
2018-05-13T05:01:25.452Z,15.30
2018-05-13T05:03:54.322Z,15.30
2018-05-13T05:06:22.767Z,15.40
2018-05-13T05:08:51.256Z,15.40
2018-05-13T05:11:19.890Z,15.50
2018-05-13T05:13:48.355Z,15.40
2018-05-13T05:16:16.807Z,15.40
2018-05-13T05:18:45.271Z,15.50
2018-05-13T05:21:13.726Z,15.50
2018-05-13T05:23:42.186Z,15.50
2018-05-13T05:26:10.674Z,15.50
2018-05-13T05:28:39.135Z,15.50
2018-05-13T05:31:07.579Z,15.50
2018-05-13T05:33:35.713Z,15.50
2018-05-13T05:36:03.851Z,15.60
2018-05-13T05:38:32.328Z,15.60
2018-05-13T05:41:00.817Z,15.50
2018-05-13T05:43:29.275Z,15.60
2018-05-13T05:45:57.716Z,15.80
2018-05-13T05:48:26.252Z,15.90
2018-05-13T05:50:54.830Z,16.10
2018-05-13T05:53:23.299Z,16.20
2018-05-13T05:55:51.921Z,16.30
2018-05-13T05:58:20.396Z,16.40
2018-05-13T06:00:48.899Z,16.40
2018-05-13T06:03:17.374Z,16.50
2018-05-13T06:05:45.998Z,17.20
2018-05-13T06:08:14.447Z,18.10
2018-05-13T06:10:42.920Z,19.10
2018-05-13T06:13:11.367Z,19.80
2018-05-13T06:15:39.830Z,20.60
2018-05-13T06:18:08.283Z,21.00
2018-05-13T06:20:36.794Z,21.30
2018-05-13T06:23:05.240Z,21.90
2018-05-13T06:25:33.698Z,22.50
2018-05-13T06:28:02.142Z,23.10
2018-05-13T06:30:30.603Z,23.70
2018-05-13T06:32:59.060Z,23.80
2018-05-13T06:35:27.518Z,23.80
2018-05-13T06:37:55.963Z,23.80
2018-05-13T06:40:25.195Z,24.40
2018-05-13T06:42:53.634Z,24.40
2018-05-13T06:45:22.100Z,24.00
2018-05-13T06:47:51.179Z,23.40
2018-05-13T06:50:19.654Z,22.80
2018-05-13T06:52:48.108Z,22.60
2018-05-13T06:55:16.592Z,23.30
2018-05-13T06:57:45.044Z,23.90
2018-05-13T07:00:13.516Z,24.30
2018-05-13T07:02:41.988Z,24.50
2018-05-13T07:05:10.619Z,23.80
2018-05-13T07:07:39.074Z,23.20
2018-05-13T07:10:07.198Z,22.70
2018-05-13T07:12:35.687Z,22.40
2018-05-13T07:15:03.550Z,22.10
2018-05-13T07:17:32.007Z,21.80
2018-05-13T07:20:00.467Z,21.80
2018-05-13T07:22:28.920Z,21.60
2018-05-13T07:24:57.534Z,21.70
2018-05-13T07:30:57.624Z,22.50
2018-05-13T07:33:26.061Z,23.00
2018-05-13T07:35:55.287Z,23.30
2018-05-13T07:38:23.732Z,23.30
2018-05-13T07:40:52.200Z,23.40
2018-05-13T07:43:20.666Z,24.00
2018-05-13T07:45:49.304Z,24.30
2018-05-13T07:48:17.755Z,24.40
2018-05-13T07:50:46.219Z,24.50
2018-05-13T07:53:14.660Z,25.10
2018-05-13T07:55:42.891Z,25.90
2018-05-13T07:58:11.336Z,26.90
2018-05-13T08:00:39.803Z,27.20
2018-05-13T08:03:08.252Z,27.40
2018-05-13T08:05:37.269Z,27.50
2018-05-13T08:08:06.483Z,27.40
2018-05-13T08:10:34.949Z,27.40
2018-05-13T08:13:03.391Z,27.10
2018-05-13T08:15:31.852Z,26.80
2018-05-13T08:18:00.299Z,26.50
2018-05-13T08:20:28.798Z,26.30
2018-05-13T08:22:57.406Z,25.90
2018-05-13T08:25:25.871Z,25.30
2018-05-13T08:27:54.341Z,25.10
2018-05-13T08:30:22.798Z,24.90
2018-05-13T08:32:51.241Z,24.60
2018-05-13T08:35:19.710Z,24.40
2018-05-13T08:37:48.941Z,24.00
2018-05-13T08:40:17.405Z,23.80
2018-05-13T08:42:45.842Z,23.80
2018-05-13T08:45:14.321Z,23.80
2018-05-13T08:47:42.759Z,23.80
2018-05-13T08:50:11.215Z,23.80
2018-05-13T08:52:39.429Z,23.70
2018-05-13T08:55:07.895Z,23.70
2018-05-13T08:57:37.352Z,23.60
2018-05-13T09:00:05.184Z,23.60
2018-05-13T09:02:33.665Z,23.60
2018-05-13T09:05:02.120Z,23.50
2018-05-13T09:07:30.627Z,23.70
2018-05-13T09:09:59.111Z,23.50
2018-05-13T09:12:27.570Z,23.40
2018-05-13T09:14:56.004Z,23.50
2018-05-13T09:17:24.475Z,23.50
2018-05-13T09:19:52.930Z,23.30
2018-05-13T09:22:21.393Z,23.30
2018-05-13T09:24:49.846Z,23.20
2018-05-13T09:27:18.307Z,23.00
2018-05-13T09:29:46.767Z,23.00
2018-05-13T09:32:15.231Z,23.10
2018-05-13T09:34:43.676Z,23.10
2018-05-13T09:37:12.171Z,23.20
2018-05-13T09:39:40.607Z,23.30
2018-05-13T09:42:09.883Z,23.20
2018-05-13T09:44:38.331Z,23.30
2018-05-13T09:47:06.790Z,23.40
2018-05-13T09:49:35.238Z,23.50
2018-05-13T09:52:03.700Z,23.60
2018-05-13T09:54:32.138Z,23.60
2018-05-13T09:57:00.602Z,23.50
2018-05-13T09:59:29.047Z,23.50
2018-05-13T10:01:57.519Z,23.40
2018-05-13T10:04:25.963Z,23.50
2018-05-13T10:06:54.435Z,23.80
2018-05-13T10:09:23.424Z,24.10
2018-05-13T10:11:52.054Z,24.20
2018-05-13T10:14:20.501Z,24.30
2018-05-13T10:16:48.962Z,24.30
2018-05-13T10:19:17.402Z,24.20
2018-05-13T10:21:45.882Z,24.00
2018-05-13T10:24:14.538Z,24.00
2018-05-13T10:26:43.046Z,24.00
2018-05-13T10:29:11.262Z,24.10
2018-05-13T10:31:39.740Z,24.00
2018-05-13T10:34:08.187Z,24.20
2018-05-13T10:36:36.662Z,24.20
2018-05-13T10:39:04.452Z,24.20
2018-05-13T10:41:33.235Z,24.30
2018-05-13T10:44:01.675Z,24.30
2018-05-13T10:46:30.163Z,24.30
2018-05-13T10:48:58.603Z,24.20
2018-05-13T10:51:27.062Z,24.00
2018-05-13T10:53:56.119Z,24.00
2018-05-13T10:56:24.585Z,24.10
2018-05-13T10:58:53.790Z,24.10
2018-05-13T11:01:23.269Z,24.10
2018-05-13T11:03:51.755Z,24.10
2018-05-13T11:06:21.823Z,24.30
2018-05-13T11:08:50.266Z,24.30
2018-05-13T11:11:18.710Z,24.30
2018-05-13T11:13:46.957Z,24.30
2018-05-13T11:16:15.855Z,24.30
2018-05-13T11:18:45.861Z,24.20
2018-05-13T11:21:14.603Z,24.20
2018-05-13T11:23:43.062Z,24.30
2018-05-13T11:26:11.503Z,24.30
2018-05-13T11:28:39.968Z,24.40
2018-05-13T11:31:10.206Z,24.50
2018-05-13T11:33:38.679Z,24.40
2018-05-13T11:36:07.122Z,24.60
2018-05-13T11:38:35.594Z,24.60
2018-05-13T11:41:04.048Z,24.70
2018-05-13T11:43:32.518Z,24.80
2018-05-13T11:46:00.975Z,24.80
2018-05-13T11:48:29.438Z,24.90
2018-05-13T11:50:57.896Z,25.00
2018-05-13T11:53:26.979Z,25.10
2018-05-13T11:55:57.286Z,24.90
2018-05-13T11:58:25.754Z,24.80
2018-05-13T12:00:54.197Z,24.70
2018-05-13T12:03:22.666Z,24.70
2018-05-13T12:05:51.111Z,24.80
2018-05-13T12:08:19.570Z,24.80
2018-05-13T12:10:48.048Z,24.80
2018-05-13T12:13:16.511Z,24.80
2018-05-13T12:15:46.790Z,24.80
2018-05-13T12:18:15.255Z,24.60
2018-05-13T12:20:44.463Z,24.70
2018-05-13T12:23:12.598Z,24.70
2018-05-13T12:25:41.049Z,24.80
2018-05-13T12:28:09.535Z,25.00
2018-05-13T12:30:37.981Z,25.20
2018-05-13T12:33:06.448Z,25.60
2018-05-13T12:35:34.910Z,25.80
2018-05-13T12:38:03.434Z,26.00
2018-05-13T12:40:32.022Z,25.90
2018-05-13T12:43:00.489Z,26.10
2018-05-13T12:45:28.930Z,26.10
2018-05-13T12:47:57.403Z,25.50
2018-05-13T12:50:25.854Z,25.00
2018-05-13T12:52:54.328Z,24.80
2018-05-13T12:55:22.781Z,24.60
2018-05-13T12:57:51.254Z,24.40
2018-05-13T13:00:19.698Z,24.20
2018-05-13T13:02:48.165Z,23.80
2018-05-13T13:05:16.615Z,23.20
2018-05-13T13:07:45.088Z,22.70
2018-05-13T13:10:13.736Z,22.40
2018-05-13T13:12:42.195Z,21.50
2018-05-13T13:15:10.678Z,19.30
2018-05-13T13:17:39.287Z,18.20
2018-05-13T13:20:07.783Z,17.70
2018-05-13T13:22:36.152Z,17.20
2018-05-13T13:25:04.300Z,16.90
2018-05-13T13:27:32.762Z,16.70
2018-05-13T13:30:01.969Z,16.60
2018-05-13T13:32:30.414Z,16.60
2018-05-13T13:34:58.883Z,16.70
2018-05-13T13:37:27.334Z,16.80
2018-05-13T13:39:55.798Z,16.70
2018-05-13T13:42:24.251Z,16.70
2018-05-13T13:44:53.497Z,16.70
2018-05-13T13:47:21.952Z,16.80
2018-05-13T13:49:50.598Z,16.80
2018-05-13T13:52:19.038Z,16.80
2018-05-13T13:54:47.514Z,16.80
2018-05-13T13:57:15.955Z,16.90
2018-05-13T13:59:44.415Z,16.80
2018-05-13T14:02:12.868Z,16.80
2018-05-13T14:04:41.331Z,16.70
2018-05-13T14:07:09.775Z,16.60
2018-05-13T14:09:38.234Z,16.60
2018-05-13T14:12:06.351Z,16.40
2018-05-13T14:14:34.831Z,16.40
2018-05-13T14:17:03.273Z,16.30
2018-05-13T14:19:31.747Z,16.30
2018-05-13T14:21:59.966Z,16.20
2018-05-13T14:24:28.459Z,16.20
2018-05-13T14:26:57.753Z,16.20
2018-05-13T14:29:27.088Z,16.20
2018-05-13T14:31:55.535Z,16.20
2018-05-13T14:34:24.072Z,16.20
2018-05-13T14:36:52.519Z,16.10
2018-05-13T14:39:20.980Z,16.10
2018-05-13T14:41:49.430Z,16.00
2018-05-13T14:44:17.902Z,15.90
2018-05-13T14:46:46.121Z,15.90
2018-05-13T14:49:14.596Z,15.90
2018-05-13T14:51:43.043Z,15.80
2018-05-13T14:54:11.507Z,15.70
2018-05-13T14:56:39.954Z,15.70
2018-05-13T14:59:08.738Z,15.60
2018-05-13T15:01:37.183Z,15.60
2018-05-13T15:04:05.662Z,15.60
2018-05-13T15:06:34.106Z,15.60
2018-05-13T15:09:02.566Z,15.60
2018-05-13T15:11:31.055Z,15.60
2018-05-13T15:14:00.297Z,15.60
2018-05-13T15:16:28.828Z,15.50
2018-05-13T15:18:57.411Z,15.40
2018-05-13T15:21:25.870Z,15.40
2018-05-13T15:23:54.331Z,15.50
2018-05-13T15:26:22.790Z,15.40
2018-05-13T15:28:51.250Z,15.50
2018-05-13T15:31:19.700Z,15.40
2018-05-13T15:33:48.150Z,15.50
2018-05-13T15:36:16.624Z,15.50
2018-05-13T15:38:45.059Z,15.40
2018-05-13T15:41:13.567Z,15.40
2018-05-13T15:43:42.023Z,15.30
2018-05-13T15:46:10.495Z,15.30
2018-05-13T15:48:38.939Z,15.30
2018-05-13T15:51:07.403Z,15.30
2018-05-13T15:53:35.849Z,15.30
2018-05-13T15:56:03.976Z,15.30
2018-05-13T15:58:32.428Z,15.30
2018-05-13T16:01:00.896Z,15.30
2018-05-13T16:03:29.344Z,15.30
2018-05-13T16:05:57.810Z,15.20
2018-05-13T16:08:26.251Z,15.20
2018-05-13T16:10:54.715Z,15.20
2018-05-13T16:13:23.158Z,15.30
2018-05-13T16:15:51.622Z,15.20
2018-05-13T16:18:20.075Z,15.20
2018-05-13T16:20:49.304Z,15.10
2018-05-13T16:23:17.753Z,15.10
2018-05-13T16:25:46.222Z,15.10
2018-05-13T16:28:14.675Z,15.10
2018-05-13T16:30:43.147Z,15.00
2018-05-13T16:33:11.599Z,15.00
2018-05-13T16:35:40.285Z,15.00
2018-05-13T16:38:09.687Z,15.00
2018-05-13T16:40:38.155Z,15.00
2018-05-13T16:43:06.595Z,15.00
2018-05-13T16:45:35.074Z,15.00
2018-05-13T16:48:03.519Z,15.00
2018-05-13T16:50:31.989Z,15.00
2018-05-13T16:53:01.274Z,15.00
2018-05-13T16:55:30.623Z,15.00
2018-05-13T16:57:59.067Z,15.10
2018-05-13T17:00:28.297Z,15.00
2018-05-13T17:02:56.765Z,15.00
2018-05-13T17:05:25.228Z,15.00
2018-05-13T17:07:53.679Z,15.00
2018-05-13T17:10:22.154Z,15.10
2018-05-13T17:12:50.595Z,15.00
2018-05-13T17:15:19.057Z,15.00
2018-05-13T17:17:47.508Z,15.00
2018-05-13T17:20:15.979Z,15.10
2018-05-13T17:22:44.422Z,15.10
2018-05-13T17:25:12.896Z,15.10
2018-05-13T17:27:41.346Z,15.10
2018-05-13T17:30:09.819Z,15.20
2018-05-13T17:32:38.272Z,15.20
2018-05-13T17:35:06.402Z,15.20
2018-05-13T17:37:34.898Z,15.30
2018-05-13T17:40:03.160Z,15.30
2018-05-13T17:42:31.632Z,15.30
2018-05-13T17:45:00.071Z,15.20
2018-05-13T17:47:28.538Z,15.20
2018-05-13T17:49:57.054Z,15.20
2018-05-13T17:52:25.651Z,15.20
2018-05-13T17:54:54.117Z,15.30
2018-05-13T17:57:23.380Z,15.40
2018-05-13T17:59:51.982Z,15.40
2018-05-13T18:02:20.456Z,15.30
2018-05-13T18:04:49.078Z,15.30
2018-05-13T18:07:18.310Z,15.30
2018-05-13T18:09:46.755Z,15.30
2018-05-13T18:12:15.214Z,15.40
2018-05-13T18:14:43.655Z,15.30
2018-05-13T18:17:12.127Z,15.30
2018-05-13T18:19:40.580Z,15.30
2018-05-13T18:22:09.047Z,15.40
2018-05-13T18:24:37.539Z,15.30
2018-05-13T18:27:06.159Z,15.30
2018-05-13T18:29:35.034Z,15.20
2018-05-13T18:32:03.494Z,15.20
2018-05-13T18:34:31.938Z,15.20
2018-05-13T18:37:00.411Z,15.20
2018-05-13T18:39:28.854Z,15.20
2018-05-13T18:41:57.318Z,15.20
2018-05-13T18:44:25.768Z,15.20
2018-05-13T18:46:54.428Z,15.20
2018-05-13T18:49:22.877Z,15.10
2018-05-13T18:51:51.347Z,15.10
2018-05-13T18:54:19.787Z,15.10
2018-05-13T18:56:48.246Z,15.10
2018-05-13T18:59:16.916Z,15.20
2018-05-13T19:01:45.551Z,15.20
2018-05-13T19:04:14.007Z,15.10
2018-05-13T19:06:42.479Z,15.10
2018-05-13T19:09:10.939Z,15.10
2018-05-13T19:11:39.807Z,15.10
2018-05-13T19:14:08.255Z,15.00
2018-05-13T19:16:36.435Z,14.90
2018-05-13T19:19:05.692Z,14.90
2018-05-13T19:21:34.298Z,14.80
2018-05-13T19:24:03.666Z,14.80
2018-05-13T19:26:32.179Z,14.70
2018-05-13T19:29:00.617Z,14.70
2018-05-13T19:31:29.173Z,14.70
2018-05-13T19:33:57.716Z,14.70
2018-05-13T19:36:26.243Z,14.70
2018-05-13T19:38:54.687Z,14.80
2018-05-13T19:41:23.151Z,14.80
2018-05-13T19:43:51.586Z,14.80
2018-05-13T19:46:20.752Z,14.80
2018-05-13T19:48:49.199Z,14.80
2018-05-13T19:51:17.638Z,14.70
2018-05-13T19:53:46.107Z,14.80
2018-05-13T19:56:15.083Z,14.80
2018-05-13T19:58:43.575Z,14.80
2018-05-13T20:01:12.636Z,14.70
2018-05-13T20:03:41.409Z,14.70
2018-05-13T20:06:10.259Z,14.70
2018-05-13T20:08:39.028Z,14.80
2018-05-13T20:11:08.249Z,14.70
2018-05-13T20:13:37.544Z,14.60
2018-05-13T20:16:06.484Z,14.70
2018-05-13T20:18:36.062Z,14.60
2018-05-13T20:21:04.877Z,14.60
2018-05-13T20:23:34.607Z,14.60
2018-05-13T20:26:03.208Z,14.70
2018-05-13T20:28:31.728Z,14.80
2018-05-13T20:31:00.935Z,14.80
2018-05-13T20:33:29.399Z,14.80
2018-05-13T20:35:58.101Z,14.80
2018-05-13T20:38:26.715Z,14.80
2018-05-13T20:40:55.564Z,14.80
2018-05-13T20:43:25.186Z,14.80
2018-05-13T20:45:55.583Z,14.80
2018-05-13T20:48:25.133Z,14.70
2018-05-13T20:50:53.902Z,14.80
2018-05-13T20:53:22.838Z,14.80
2018-05-13T20:55:51.627Z,14.80
2018-05-13T20:58:20.412Z,14.80
2018-05-13T21:00:49.461Z,14.80
2018-05-13T21:03:19.030Z,14.80
2018-05-13T21:05:47.269Z,14.80
2018-05-13T21:08:15.734Z,14.80
2018-05-13T21:10:44.180Z,14.80
2018-05-13T21:13:12.641Z,14.80
2018-05-13T21:15:41.087Z,14.80
2018-05-13T21:18:10.395Z,14.80
2018-05-13T21:20:38.846Z,15.00
2018-05-13T21:23:07.696Z,14.90
2018-05-13T21:25:36.139Z,14.80
2018-05-13T21:28:05.658Z,14.90
2018-05-13T21:30:35.088Z,14.90
2018-05-13T21:33:03.551Z,14.80
2018-05-13T21:35:32.434Z,14.80
2018-05-13T21:38:01.668Z,14.80
2018-05-13T21:40:30.186Z,14.80
2018-05-13T21:42:58.655Z,14.80
2018-05-13T21:45:27.827Z,14.90
2018-05-13T21:47:56.298Z,14.80
2018-05-13T21:50:24.780Z,14.90
2018-05-13T21:52:54.605Z,14.80
2018-05-13T21:55:23.055Z,14.70
2018-05-13T21:57:51.536Z,14.70
2018-05-13T22:00:19.658Z,14.70
2018-05-13T22:02:48.114Z,14.70
2018-05-13T22:05:16.576Z,14.70
2018-05-13T22:07:45.039Z,14.70
2018-05-13T22:10:13.522Z,14.70
2018-05-13T22:12:41.987Z,14.70
2018-05-13T22:15:10.439Z,14.70
2018-05-13T22:17:38.892Z,14.70
2018-05-13T22:20:07.351Z,14.70
2018-05-13T22:22:35.809Z,14.70
2018-05-13T22:25:04.707Z,14.80
2018-05-13T22:27:33.164Z,14.70
2018-05-13T22:30:01.634Z,14.70
2018-05-13T22:32:30.087Z,14.70
2018-05-13T22:34:59.319Z,14.70
2018-05-13T22:37:27.764Z,14.70
2018-05-13T22:39:56.231Z,14.70
2018-05-13T22:42:24.685Z,14.70
2018-05-13T22:44:53.231Z,14.60
2018-05-13T22:47:21.877Z,14.70
2018-05-13T22:49:51.219Z,14.70
2018-05-13T22:52:19.692Z,14.70
2018-05-13T22:54:48.326Z,14.70
2018-05-13T22:57:16.776Z,14.70
2018-05-13T22:59:45.242Z,14.70
2018-05-13T23:02:13.696Z,14.70
2018-05-13T23:04:42.187Z,14.70
2018-05-13T23:07:10.635Z,14.70
2018-05-13T23:09:39.090Z,14.80
2018-05-13T23:12:07.530Z,14.80
2018-05-13T23:14:37.294Z,14.80
2018-05-13T23:17:05.743Z,14.80
2018-05-13T23:19:34.215Z,14.80
2018-05-13T23:22:02.660Z,14.80
2018-05-13T23:24:31.131Z,14.80
2018-05-13T23:26:59.576Z,14.80
2018-05-13T23:29:28.035Z,14.80
2018-05-13T23:31:56.486Z,14.80
2018-05-13T23:34:25.025Z,14.80
2018-05-13T23:36:53.582Z,14.80
2018-05-13T23:39:22.042Z,14.80
2018-05-13T23:41:50.492Z,14.90
2018-05-13T23:44:18.958Z,14.70
2018-05-13T23:46:47.410Z,14.80
2018-05-13T23:49:15.873Z,14.80
2018-05-13T23:51:44.315Z,14.80
2018-05-13T23:54:12.775Z,14.70
2018-05-13T23:56:40.998Z,14.80
2018-05-13T23:59:09.464Z,14.80
